createdAt,value
2018-02-03T00:00:13.571Z,72.10
2018-02-03T00:02:41.034Z,71.90
2018-02-03T00:05:08.478Z,72.30
2018-02-03T00:07:35.939Z,72.10
2018-02-03T00:10:03.384Z,72.40
2018-02-03T00:12:30.836Z,72.40
2018-02-03T00:14:58.294Z,72.50
2018-02-03T00:17:25.753Z,72.30
2018-02-03T00:19:53.207Z,72.80
2018-02-03T00:22:20.662Z,72.80
2018-02-03T00:24:48.118Z,72.50
2018-02-03T00:27:15.575Z,72.30
2018-02-03T00:29:43.016Z,72.60
2018-02-03T00:32:10.469Z,72.90
2018-02-03T00:34:37.915Z,73.10
2018-02-03T00:37:05.363Z,72.50
2018-02-03T00:39:33.570Z,72.20
2018-02-03T00:42:01.031Z,72.20
2018-02-03T00:44:28.482Z,72.40
2018-02-03T00:46:55.939Z,72.30
2018-02-03T00:49:23.399Z,72.60
2018-02-03T00:51:50.854Z,72.40
2018-02-03T00:54:18.307Z,72.90
2018-02-03T00:56:45.763Z,72.30
2018-02-03T00:59:13.219Z,72.90
2018-02-03T01:01:40.671Z,73.30
2018-02-03T01:04:08.110Z,73.20
2018-02-03T01:06:35.554Z,72.90
2018-02-03T01:09:03.790Z,72.50
2018-02-03T01:11:31.244Z,72.40
2018-02-03T01:13:58.706Z,72.80
2018-02-03T01:16:26.159Z,72.90
2018-02-03T01:18:53.610Z,72.90
2018-02-03T01:21:21.047Z,72.70
2018-02-03T01:23:48.503Z,72.50
2018-02-03T01:26:15.957Z,73.20
2018-02-03T01:28:43.402Z,73.50
2018-02-03T01:31:10.839Z,73.50
2018-02-03T01:33:39.058Z,73.30
2018-02-03T01:36:06.501Z,73.30
2018-02-03T01:38:33.959Z,73.90
2018-02-03T01:41:01.410Z,74.60
2018-02-03T01:43:28.866Z,75.00
2018-02-03T01:45:56.324Z,74.90
2018-02-03T01:48:23.779Z,75.00
2018-02-03T01:50:51.223Z,74.50
2018-02-03T01:53:18.666Z,75.00
2018-02-03T01:55:46.107Z,77.50
2018-02-03T01:58:14.327Z,81.00
2018-02-03T02:00:42.622Z,80.90
2018-02-03T02:03:10.076Z,82.20
2018-02-03T02:05:37.535Z,83.10
2018-02-03T02:08:04.988Z,83.90
2018-02-03T02:10:32.443Z,84.50
2018-02-03T02:12:59.905Z,84.70
2018-02-03T02:15:27.347Z,85.10
2018-02-03T02:17:54.798Z,84.80
2018-02-03T02:20:22.254Z,85.30
2018-02-03T02:22:49.699Z,85.30
2018-02-03T02:25:17.157Z,86.00
2018-02-03T02:27:44.614Z,86.10
2018-02-03T02:30:12.076Z,86.10
2018-02-03T02:32:39.527Z,85.70
2018-02-03T02:35:06.985Z,86.10
2018-02-03T02:37:34.437Z,86.70
2018-02-03T02:40:01.898Z,86.80
2018-02-03T02:42:29.348Z,86.80
2018-02-03T02:44:56.812Z,87.10
2018-02-03T02:47:24.268Z,87.40
2018-02-03T02:49:51.718Z,87.30
2018-02-03T02:52:19.176Z,87.30
2018-02-03T02:54:46.630Z,87.20
2018-02-03T02:57:14.087Z,87.20
2018-02-03T02:59:41.553Z,86.80
2018-02-03T03:02:08.998Z,87.20
2018-02-03T03:04:36.455Z,86.10
2018-02-03T03:07:03.910Z,86.60
2018-02-03T03:09:31.375Z,87.10
2018-02-03T03:11:58.827Z,86.40
2018-02-03T03:14:26.286Z,86.60
2018-02-03T03:16:53.735Z,86.60
2018-02-03T03:19:21.203Z,86.40
2018-02-03T03:21:48.656Z,86.00
2018-02-03T03:24:16.107Z,84.80
2018-02-03T03:26:43.560Z,83.00
2018-02-03T03:29:11.019Z,82.60
2018-02-03T03:31:39.231Z,81.80
2018-02-03T03:34:06.677Z,81.60
2018-02-03T03:36:34.139Z,81.20
2018-02-03T03:39:01.592Z,82.10
2018-02-03T03:41:29.042Z,81.70
2018-02-03T03:43:56.494Z,80.10
2018-02-03T03:46:23.952Z,79.60
2018-02-03T03:48:51.403Z,79.90
2018-02-03T03:51:18.900Z,81.00
2018-02-03T03:53:46.299Z,81.80
2018-02-03T03:56:14.523Z,81.90
2018-02-03T03:58:41.966Z,82.00
2018-02-03T04:01:09.419Z,81.80
2018-02-03T04:03:36.873Z,81.70
2018-02-03T04:06:04.330Z,82.60
2018-02-03T04:08:31.783Z,82.70
2018-02-03T04:10:59.243Z,82.60
2018-02-03T04:13:26.698Z,82.70
2018-02-03T04:15:54.154Z,82.30
2018-02-03T04:18:21.598Z,81.90
2018-02-03T04:20:49.067Z,82.60
2018-02-03T04:23:16.523Z,83.80
2018-02-03T04:25:43.978Z,83.30
2018-02-03T04:28:11.436Z,83.60
2018-02-03T04:30:38.892Z,83.70
2018-02-03T04:33:06.346Z,83.40
2018-02-03T04:35:33.802Z,82.90
2018-02-03T04:38:01.263Z,82.00
2018-02-03T04:40:28.714Z,81.90
2018-02-03T04:42:56.174Z,82.10
2018-02-03T04:45:23.629Z,82.20
2018-02-03T04:47:51.082Z,81.80
2018-02-03T04:50:18.542Z,81.00
2018-02-03T04:52:46.006Z,80.40
2018-02-03T04:55:13.452Z,81.10
2018-02-03T04:57:40.906Z,81.00
2018-02-03T05:00:08.351Z,80.70
2018-02-03T05:02:35.811Z,79.80
2018-02-03T05:05:03.263Z,80.00
2018-02-03T05:07:30.719Z,80.30
2018-02-03T05:09:58.166Z,81.30
2018-02-03T05:12:25.630Z,81.10
2018-02-03T05:14:53.083Z,81.50
2018-02-03T05:17:20.542Z,81.00
2018-02-03T05:19:47.987Z,80.50
2018-02-03T05:22:15.442Z,80.00
2018-02-03T05:24:42.887Z,80.60
2018-02-03T05:27:10.347Z,80.20
2018-02-03T05:29:37.799Z,80.20
2018-02-03T05:32:05.262Z,80.30
2018-02-03T05:34:32.712Z,80.40
2018-02-03T05:37:00.154Z,80.30
2018-02-03T05:39:27.603Z,80.60
2018-02-03T05:41:55.051Z,81.30
2018-02-03T05:44:23.279Z,81.90
2018-02-03T05:46:50.731Z,82.00
2018-02-03T05:49:18.191Z,82.60
2018-02-03T05:51:45.647Z,82.80
2018-02-03T05:54:13.099Z,82.50
2018-02-03T05:56:40.554Z,83.60
2018-02-03T05:59:08.007Z,83.60
2018-02-03T06:01:35.449Z,84.00
2018-02-03T06:04:02.907Z,82.60
2018-02-03T06:06:30.365Z,82.10
2018-02-03T06:08:57.819Z,82.70
2018-02-03T06:11:25.258Z,83.10
2018-02-03T06:13:52.705Z,84.00
2018-02-03T06:16:20.151Z,84.50
2018-02-03T06:18:48.385Z,85.40
2018-02-03T06:21:15.835Z,85.40
2018-02-03T06:23:43.291Z,85.40
2018-02-03T06:26:10.734Z,85.60
2018-02-03T06:28:38.183Z,85.00
2018-02-03T06:31:05.626Z,85.10
2018-02-03T06:33:33.078Z,84.90
2018-02-03T06:36:00.523Z,84.30
2018-02-03T06:38:27.978Z,84.40
2018-02-03T06:40:55.437Z,84.80
2018-02-03T06:43:23.662Z,85.00
2018-02-03T06:45:51.115Z,84.90
2018-02-03T06:48:18.571Z,85.30
2018-02-03T06:50:46.019Z,85.20
2018-02-03T06:53:13.474Z,85.00
2018-02-03T06:55:40.931Z,85.50
2018-02-03T06:58:08.406Z,85.60
2018-02-03T07:00:35.864Z,85.80
2018-02-03T07:03:03.313Z,86.00
2018-02-03T07:05:30.774Z,86.10
2018-02-03T07:07:58.230Z,86.40
2018-02-03T07:10:25.687Z,86.30
2018-02-03T07:12:53.140Z,86.30
2018-02-03T07:15:20.591Z,86.70
2018-02-03T07:17:48.034Z,87.00
2018-02-03T07:20:15.491Z,87.30
2018-02-03T07:22:42.933Z,87.50
2018-02-03T07:25:10.388Z,87.50
2018-02-03T07:27:38.401Z,87.50
2018-02-03T07:30:05.957Z,87.30
2018-02-03T07:32:33.405Z,87.30
2018-02-03T07:35:00.862Z,87.40
2018-02-03T07:37:28.310Z,87.10
2018-02-03T07:39:55.767Z,87.10
2018-02-03T07:42:23.210Z,87.80
2018-02-03T07:44:50.662Z,86.90
2018-02-03T07:47:18.131Z,86.90
2018-02-03T07:49:45.574Z,86.60
2018-02-03T07:52:13.036Z,86.60
2018-02-03T07:54:40.486Z,86.40
2018-02-03T07:57:07.947Z,86.10
2018-02-03T07:59:35.393Z,85.80
2018-02-03T08:02:02.843Z,85.40
2018-02-03T08:04:30.287Z,84.50
2018-02-03T08:06:58.511Z,84.30
2018-02-03T08:09:25.956Z,84.20
2018-02-03T08:11:53.411Z,84.50
2018-02-03T08:14:20.859Z,84.50
2018-02-03T08:16:48.311Z,84.20
2018-02-03T08:19:15.751Z,82.70
2018-02-03T08:21:43.221Z,82.10
2018-02-03T08:24:11.436Z,81.90
2018-02-03T08:26:38.890Z,81.70
2018-02-03T08:29:06.343Z,82.60
2018-02-03T08:31:33.803Z,83.20
2018-02-03T08:34:01.271Z,82.60
2018-02-03T08:36:28.727Z,81.70
2018-02-03T08:38:56.171Z,82.30
2018-02-03T08:41:23.639Z,81.70
2018-02-03T08:43:51.081Z,81.00
2018-02-03T08:46:18.555Z,81.10
2018-02-03T08:48:45.994Z,81.30
2018-02-03T08:51:13.450Z,81.50
2018-02-03T08:53:40.923Z,81.50
2018-02-03T08:56:08.375Z,81.30
2018-02-03T08:58:35.819Z,80.00
2018-02-03T09:01:03.263Z,79.40
2018-02-03T09:03:30.711Z,80.10
2018-02-03T09:05:58.167Z,80.10
2018-02-03T09:08:25.615Z,78.50
2018-02-03T09:10:53.062Z,78.30
2018-02-03T09:13:20.518Z,78.30
2018-02-03T09:15:47.975Z,77.60
2018-02-03T09:18:15.434Z,76.60
2018-02-03T09:20:42.950Z,75.90
2018-02-03T09:23:10.350Z,76.30
2018-02-03T09:25:37.814Z,74.80
2018-02-03T09:28:05.276Z,73.90
2018-02-03T09:30:32.712Z,73.10
2018-02-03T09:33:00.172Z,72.80
2018-02-03T09:35:27.612Z,73.10
2018-02-03T09:37:55.058Z,73.60
2018-02-03T09:40:22.507Z,73.00
2018-02-03T09:42:50.739Z,71.60
2018-02-03T09:45:18.183Z,71.60
2018-02-03T09:47:45.638Z,72.40
2018-02-03T09:50:13.085Z,72.10
2018-02-03T09:52:40.546Z,72.20
2018-02-03T09:55:07.999Z,72.60
2018-02-03T09:57:35.456Z,72.30
2018-02-03T10:00:02.912Z,71.10
2018-02-03T10:02:31.126Z,71.00
2018-02-03T10:04:58.570Z,70.90
2018-02-03T10:07:26.027Z,70.80
2018-02-03T10:09:53.466Z,70.40
2018-02-03T10:12:20.923Z,68.90
2018-02-03T10:14:48.354Z,69.40
2018-02-03T10:17:15.811Z,68.80
2018-02-03T10:19:43.267Z,68.70
2018-02-03T10:22:10.727Z,69.30
2018-02-03T10:24:38.188Z,69.40
2018-02-03T10:27:05.638Z,69.40
2018-02-03T10:29:33.099Z,70.40
2018-02-03T10:32:00.535Z,70.00
2018-02-03T10:34:27.981Z,68.00
2018-02-03T10:36:55.419Z,67.70
2018-02-03T10:39:23.636Z,67.90
2018-02-03T10:41:51.070Z,67.30
2018-02-03T10:44:18.523Z,67.30
2018-02-03T10:46:45.962Z,66.90
2018-02-03T10:49:14.176Z,66.20
2018-02-03T10:51:41.663Z,66.20
2018-02-03T10:54:09.058Z,65.30
2018-02-03T10:56:36.498Z,66.40
2018-02-03T10:59:03.938Z,66.40
2018-02-03T11:01:31.384Z,66.30
2018-02-03T11:03:58.830Z,64.90
2018-02-03T11:06:26.279Z,65.50
2018-02-03T11:08:53.724Z,65.30
2018-02-03T11:11:21.162Z,64.30
2018-02-03T11:13:48.602Z,63.00
2018-02-03T11:16:16.819Z,64.30
2018-02-03T11:18:44.267Z,64.30
2018-02-03T11:21:11.706Z,63.30
2018-02-03T11:23:39.151Z,65.30
2018-02-03T11:26:07.354Z,65.00
2018-02-03T11:28:34.806Z,65.00
2018-02-03T11:31:02.243Z,64.90
2018-02-03T11:33:29.699Z,65.90
2018-02-03T11:35:57.140Z,66.00
2018-02-03T11:38:25.350Z,66.40
2018-02-03T11:40:52.802Z,66.40
2018-02-03T11:43:20.239Z,67.40
2018-02-03T11:45:47.682Z,66.10
2018-02-03T11:48:15.895Z,68.00
2018-02-03T11:50:43.348Z,68.00
2018-02-03T11:53:10.790Z,67.00
2018-02-03T11:55:38.239Z,66.70
2018-02-03T11:58:05.677Z,66.80
2018-02-03T12:00:33.891Z,66.60
2018-02-03T12:03:01.352Z,66.60
2018-02-03T12:05:28.798Z,66.90
2018-02-03T12:07:56.235Z,66.60
2018-02-03T12:10:23.744Z,66.10
2018-02-03T12:12:51.142Z,67.90
2018-02-03T12:15:18.591Z,68.80
2018-02-03T12:17:46.795Z,69.00
2018-02-03T12:20:14.304Z,69.00
2018-02-03T12:22:41.747Z,69.20
2018-02-03T12:25:09.194Z,70.50
2018-02-03T12:27:36.643Z,70.10
2018-02-03T12:30:04.091Z,70.30
2018-02-03T12:32:31.581Z,70.90
2018-02-03T12:34:58.990Z,70.70
2018-02-03T12:37:26.426Z,69.40
2018-02-03T12:39:53.878Z,70.80
2018-02-03T12:42:21.328Z,70.90
2018-02-03T12:44:49.579Z,70.20
2018-02-03T12:47:16.980Z,70.20
2018-02-03T12:49:44.427Z,69.00
2018-02-03T12:52:11.862Z,69.40
2018-02-03T12:54:40.096Z,66.80
2018-02-03T12:57:07.542Z,66.80
2018-02-03T12:59:34.984Z,66.30
2018-02-03T13:02:02.438Z,66.20
2018-02-03T13:04:29.867Z,68.20
2018-02-03T13:06:58.086Z,67.40
2018-02-03T13:09:25.528Z,67.30
2018-02-03T13:11:52.983Z,66.90
2018-02-03T13:14:20.438Z,67.50
2018-02-03T13:16:47.880Z,68.20
2018-02-03T13:19:15.327Z,68.90
2018-02-03T13:21:42.773Z,68.40
2018-02-03T13:24:10.982Z,67.50
2018-02-03T13:26:38.435Z,67.50
2018-02-03T13:29:05.892Z,67.30
2018-02-03T13:31:33.348Z,67.10
2018-02-03T13:34:00.788Z,67.30
2018-02-03T13:36:28.236Z,67.80
2018-02-03T13:38:55.677Z,67.10
2018-02-03T13:41:23.887Z,67.90
2018-02-03T13:43:51.342Z,67.20
2018-02-03T13:46:18.801Z,66.70
2018-02-03T13:48:46.242Z,66.90
2018-02-03T13:51:13.686Z,66.20
2018-02-03T13:53:41.122Z,65.10
2018-02-03T13:56:09.340Z,64.90
2018-02-03T13:58:36.770Z,64.70
2018-02-03T14:01:05.047Z,64.60
2018-02-03T14:03:32.438Z,64.60
2018-02-03T14:05:59.886Z,65.60
2018-02-03T14:08:27.326Z,66.10
2018-02-03T14:10:54.796Z,66.60
2018-02-03T14:13:22.250Z,67.70
2018-02-03T14:15:49.706Z,67.80
2018-02-03T14:18:17.168Z,67.10
2018-02-03T14:20:44.627Z,66.80
2018-02-03T14:23:12.080Z,66.40
2018-02-03T14:25:39.562Z,66.80
2018-02-03T14:28:06.994Z,67.30
2018-02-03T14:30:34.433Z,68.00
2018-02-03T14:33:01.882Z,68.00
2018-02-03T14:35:29.327Z,68.20
2018-02-03T14:37:57.546Z,69.30
2018-02-03T14:40:24.991Z,69.30
2018-02-03T14:42:52.447Z,69.50
2018-02-03T14:45:19.886Z,69.70
2018-02-03T14:47:47.343Z,69.20
2018-02-03T14:50:14.792Z,69.90
2018-02-03T14:52:42.242Z,70.70
2018-02-03T14:55:09.696Z,70.50
2018-02-03T14:57:37.928Z,71.30
2018-02-03T15:00:05.371Z,71.20
2018-02-03T15:02:32.827Z,71.90
2018-02-03T15:05:00.270Z,70.80
2018-02-03T15:07:27.727Z,70.30
2018-02-03T15:09:55.179Z,69.60
2018-02-03T15:12:22.635Z,70.10
2018-02-03T15:14:50.134Z,70.60
2018-02-03T15:17:17.559Z,70.90
2018-02-03T15:19:45.015Z,70.60
2018-02-03T15:22:12.459Z,70.10
2018-02-03T15:24:39.915Z,69.70
2018-02-03T15:27:08.176Z,70.50
2018-02-03T15:29:35.619Z,70.80
2018-02-03T15:32:03.064Z,71.30
2018-02-03T15:34:31.294Z,70.90
2018-02-03T15:36:58.735Z,70.80
2018-02-03T15:39:26.196Z,71.00
2018-02-03T15:41:53.651Z,71.10
2018-02-03T15:44:21.157Z,71.70
2018-02-03T15:46:48.559Z,71.00
2018-02-03T15:49:16.021Z,71.60
2018-02-03T15:51:43.479Z,71.80
2018-02-03T15:54:10.931Z,72.90
2018-02-03T15:56:38.387Z,72.80
2018-02-03T15:59:05.847Z,73.60
2018-02-03T16:01:33.299Z,73.30
2018-02-03T16:04:00.758Z,73.90
2018-02-03T16:06:28.214Z,74.30
2018-02-03T16:08:55.667Z,73.90
2018-02-03T16:11:23.127Z,74.30
2018-02-03T16:13:50.595Z,74.50
2018-02-03T16:16:18.034Z,74.60
2018-02-03T16:18:45.494Z,74.30
2018-02-03T16:21:12.947Z,74.60
2018-02-03T16:23:40.428Z,74.70
2018-02-03T16:26:07.879Z,74.80
2018-02-03T16:28:35.344Z,75.40
2018-02-03T16:31:02.811Z,75.40
2018-02-03T16:33:30.271Z,75.40
2018-02-03T16:35:57.728Z,74.10
2018-02-03T16:38:25.178Z,73.30
2018-02-03T16:40:52.639Z,72.20
2018-02-03T16:43:20.098Z,71.30
2018-02-03T16:45:47.564Z,71.30
2018-02-03T16:48:15.020Z,71.70
2018-02-03T16:50:42.476Z,72.20
2018-02-03T16:53:10.695Z,72.90
2018-02-03T16:55:38.155Z,72.90
2018-02-03T16:58:06.368Z,72.30
2018-02-03T17:00:33.831Z,72.30
2018-02-03T17:03:01.285Z,72.90
2018-02-03T17:05:28.740Z,73.60
2018-02-03T17:07:56.174Z,73.70
2018-02-03T17:10:23.635Z,72.60
2018-02-03T17:12:51.094Z,71.80
2018-02-03T17:15:18.605Z,72.00
2018-02-03T17:17:46.013Z,71.50
2018-02-03T17:20:13.481Z,71.30
2018-02-03T17:22:40.935Z,72.10
2018-02-03T17:25:08.398Z,72.30
2018-02-03T17:27:36.619Z,73.10
2018-02-03T17:30:04.075Z,73.10
2018-02-03T17:32:31.526Z,72.90
2018-02-03T17:34:58.987Z,73.20
2018-02-03T17:37:32.019Z,73.40
2018-02-03T17:39:59.471Z,73.90
2018-02-03T17:42:26.949Z,74.00
2018-02-03T17:47:55.319Z,75.10
2018-02-03T17:50:22.778Z,75.10
2018-02-03T17:52:50.231Z,75.30
2018-02-03T17:55:23.420Z,75.40
2018-02-03T17:57:50.879Z,75.50
2018-02-03T18:00:18.335Z,75.80
2018-02-03T18:02:45.789Z,76.20
2018-02-03T18:05:13.236Z,76.20
2018-02-03T18:07:40.699Z,76.90
2018-02-03T18:10:08.156Z,76.30
2018-02-03T18:12:35.623Z,76.60
2018-02-03T18:15:03.072Z,76.60
2018-02-03T18:17:30.523Z,77.20
2018-02-03T18:19:57.983Z,76.60
2018-02-03T18:22:25.439Z,76.40
2018-02-03T18:24:52.890Z,76.30
2018-02-03T18:27:20.354Z,76.70
2018-02-03T18:29:47.803Z,76.20
2018-02-03T18:32:15.263Z,75.80
2018-02-03T18:34:42.747Z,76.00
2018-02-03T18:37:10.970Z,74.10
2018-02-03T18:39:39.235Z,75.20
2018-02-03T18:42:06.723Z,74.60
2018-02-03T18:44:34.188Z,75.20
2018-02-03T18:47:01.656Z,76.10
2018-02-03T18:49:29.883Z,76.70
2018-02-03T18:51:57.356Z,76.40
2018-02-03T18:54:24.818Z,76.70
2018-02-03T18:56:52.287Z,76.60
2018-02-03T18:59:19.755Z,77.50
2018-02-03T19:01:47.215Z,77.00
2018-02-03T19:04:15.438Z,75.40
2018-02-03T19:06:43.668Z,75.50
2018-02-03T19:09:11.896Z,75.50
2018-02-03T19:11:39.364Z,75.50
2018-02-03T19:14:06.820Z,74.70
2018-02-03T19:16:34.303Z,75.50
2018-02-03T19:19:01.755Z,75.20
2018-02-03T19:21:29.216Z,75.30
2018-02-03T19:23:56.778Z,75.50
2018-02-03T19:26:25.027Z,77.10
2018-02-03T19:28:52.491Z,77.20
2018-02-03T19:31:19.951Z,77.80
2018-02-03T19:33:47.480Z,77.90
2018-02-03T19:36:14.993Z,78.60
2018-02-03T19:38:43.219Z,79.10
2018-02-03T19:41:10.727Z,79.00
2018-02-03T19:43:38.952Z,79.50
2018-02-03T19:46:06.419Z,79.40
2018-02-03T19:48:33.934Z,79.90
2018-02-03T19:51:01.379Z,80.10
2018-02-03T19:53:28.832Z,80.20
2018-02-03T19:55:57.047Z,80.30
2018-02-03T19:58:24.527Z,80.50
2018-02-03T20:00:51.978Z,80.40
2018-02-03T20:03:19.493Z,80.30
2018-02-03T20:05:46.939Z,80.70
2018-02-03T20:08:14.420Z,80.90
2018-02-03T20:10:42.666Z,80.70
2018-02-03T20:13:10.191Z,80.80
2018-02-03T20:15:37.659Z,81.50
2018-02-03T20:18:05.946Z,81.40
2018-02-03T20:20:34.155Z,81.30
2018-02-03T20:23:01.649Z,81.20
2018-02-03T20:25:29.141Z,81.60
2018-02-03T20:27:57.375Z,82.10
2018-02-03T20:30:24.883Z,82.00
2018-02-03T20:32:52.336Z,82.30
2018-02-03T20:35:19.849Z,82.10
2018-02-03T20:37:47.342Z,82.30
2018-02-03T20:40:15.615Z,82.60
2018-02-03T20:42:43.867Z,82.80
2018-02-03T20:45:11.319Z,82.60
2018-02-03T20:47:38.827Z,82.40
2018-02-03T20:50:07.204Z,82.40
2018-02-03T20:52:34.638Z,81.90
2018-02-03T20:55:02.099Z,82.20
2018-02-03T20:57:29.608Z,82.50
2018-02-03T20:59:57.064Z,82.80
2018-02-03T21:02:24.519Z,82.80
2018-02-03T21:04:51.975Z,82.90
2018-02-03T21:07:19.454Z,82.90
2018-02-03T21:09:46.946Z,83.20
2018-02-03T21:12:14.438Z,83.40
2018-02-03T21:14:41.942Z,83.60
2018-02-03T21:17:10.218Z,82.90
2018-02-03T21:19:38.453Z,83.30
2018-02-03T21:22:05.906Z,84.10
2018-02-03T21:24:33.359Z,83.20
2018-02-03T21:27:00.853Z,83.30
2018-02-03T21:29:28.299Z,83.50
2018-02-03T21:31:55.800Z,83.40
2018-02-03T21:34:23.318Z,83.30
2018-02-03T21:36:50.764Z,83.00
2018-02-03T21:39:18.266Z,82.00
2018-02-03T21:41:45.764Z,82.40
2018-02-03T21:44:13.298Z,83.00
2018-02-03T21:46:40.755Z,82.60
2018-02-03T21:49:08.263Z,81.90
2018-02-03T21:51:36.542Z,81.30
2018-02-03T21:54:04.024Z,81.40
2018-02-03T21:56:31.486Z,81.70
2018-02-03T21:58:58.974Z,82.10
2018-02-03T22:01:26.476Z,82.80
2018-02-03T22:03:54.734Z,82.40
2018-02-03T22:06:22.179Z,82.50
2018-02-03T22:08:49.631Z,82.70
2018-02-03T22:11:17.099Z,83.30
2018-02-03T22:13:44.550Z,83.30
2018-02-03T22:16:12.012Z,83.90
2018-02-03T22:18:39.463Z,82.50
2018-02-03T22:21:06.922Z,82.40
2018-02-03T22:23:34.371Z,82.40
2018-02-03T22:26:01.844Z,82.80
2018-02-03T22:28:29.288Z,83.20
2018-02-03T22:30:56.748Z,83.00
2018-02-03T22:33:24.206Z,83.50
2018-02-03T22:35:51.674Z,83.30
2018-02-03T22:38:19.938Z,84.30
2018-02-03T22:40:47.386Z,84.20
2018-02-03T22:43:14.832Z,84.40
2018-02-03T22:45:42.377Z,83.80
2018-02-03T22:48:09.826Z,83.40
2018-02-03T22:50:37.287Z,83.50
2018-02-03T22:53:04.798Z,83.90
2018-02-03T22:55:33.023Z,84.00
2018-02-03T22:58:00.488Z,84.10
2018-02-03T23:00:27.950Z,84.20
2018-02-03T23:02:59.218Z,84.20
2018-02-03T23:05:26.662Z,84.30
2018-02-03T23:07:54.127Z,83.70
2018-02-03T23:10:21.577Z,82.70
2018-02-03T23:12:49.027Z,82.90
2018-02-03T23:15:16.488Z,83.20
2018-02-03T23:17:43.979Z,83.00
2018-02-03T23:20:11.429Z,82.70
2018-02-03T23:22:38.887Z,83.00
2018-02-03T23:25:07.112Z,83.80
2018-02-03T23:27:34.575Z,84.00
2018-02-03T23:30:02.031Z,84.20
2018-02-03T23:32:29.536Z,83.90
2018-02-03T23:34:56.986Z,83.70
2018-02-03T23:37:24.443Z,83.70
2018-02-03T23:39:51.904Z,83.80
2018-02-03T23:42:20.173Z,83.90
2018-02-03T23:44:47.608Z,84.00
2018-02-03T23:47:15.071Z,83.80
2018-02-03T23:49:42.518Z,84.90
2018-02-03T23:52:09.987Z,84.00
2018-02-03T23:54:38.214Z,83.60
2018-02-03T23:57:05.679Z,83.60
2018-02-03T23:59:33.135Z,83.10
